Time;durP1;ratioP1;P1;durP2;ratioP2;P2;SDS_P1;SDS_P2;PMS_P1;PMS_P2;Temp;Humidity;BMP_temperature;BMP_pressure;BME280_temperature;BME280_humidity;BME280_pressure;Samples;Min_cycle;Max_cycle;Signal;HPM_P1;HPM_P2
2022/09/25 00:01:10;;;;;;;23.73;14.45;;;;;;;11.13;67.64;98273.78;5008777;28;20066;-72
2022/09/25 00:03:36;;;;;;;26.27;16.08;;;;;;;11.13;67.16;98263.59;5007243;28;20422;-72
2022/09/25 00:06:05;;;;;;;30.35;17.02;;;;;;;11.16;67.31;98262.19;5017641;28;20096;-72
2022/09/25 00:08:32;;;;;;;30.30;16.60;;;;;;;11.17;67.03;98259.13;5009560;28;20022;-72
2022/09/25 00:10:57;;;;;;;31.92;18.88;;;;;;;11.20;67.88;98265.94;5009878;28;20060;-73
2022/09/25 00:13:23;;;;;;;31.90;19.15;;;;;;;11.21;67.27;98262.06;5009801;28;20411;-73
2022/09/25 00:15:55;;;;;;;31.73;18.55;;;;;;;11.20;67.69;98254.97;5009914;28;20112;-72
2022/09/25 00:21:10;;;;;;;29.63;16.95;;;;;;;11.22;67.54;98252.69;5002059;28;20080;-71
2022/09/25 00:23:36;;;;;;;31.95;18.88;;;;;;;11.25;67.39;98262.28;5008871;28;20109;-71
2022/09/25 00:26:03;;;;;;;33.47;18.95;;;;;;;11.26;67.38;98258.41;5007621;28;20109;-72
2022/09/25 00:28:30;;;;;;;32.33;18.65;;;;;;;11.27;67.79;98254.56;5008558;28;20026;-71
2022/09/25 00:30:56;;;;;;;28.75;17.00;;;;;;;11.27;67.33;98260.03;5007116;28;20402;-72
2022/09/25 00:33:21;;;;;;;27.65;17.08;;;;;;;11.28;67.38;98248.75;5008626;28;20018;-72
2022/09/25 00:35:47;;;;;;;27.58;16.00;;;;;;;11.28;67.51;98251.47;5010077;28;20457;-72
2022/09/25 00:38:12;;;;;;;26.38;16.52;;;;;;;11.28;66.82;98253.44;5006596;28;20025;-72
2022/09/25 00:40:38;;;;;;;27.70;17.15;;;;;;;11.28;67.53;98246.00;5007516;28;20771;-73
2022/09/25 00:43:10;;;;;;;28.85;16.70;;;;;;;11.30;67.10;98243.75;5004412;28;20114;-72
2022/09/25 00:45:36;;;;;;;24.88;14.63;;;;;;;11.34;67.08;98251.38;5007379;28;20025;-73
2022/09/25 00:48:07;;;;;;;24.20;14.40;;;;;;;11.34;67.34;98240.41;5004407;28;20125;-72
2022/09/25 00:50:37;;;;;;;23.95;14.15;;;;;;;11.35;67.08;98244.78;5009435;28;20128;-71
2022/09/25 00:53:13;;;;;;;23.13;13.75;;;;;;;11.32;66.93;98235.22;5026584;28;20045;-71
2022/09/25 00:55:43;;;;;;;21.52;13.13;;;;;;;11.34;67.64;98232.16;5018366;28;20034;-71
2022/09/25 00:58:13;;;;;;;21.98;13.50;;;;;;;11.37;67.45;98240.63;5006908;28;20487;-71
2022/09/25 01:00:38;;;;;;;;;;;;;;;11.40;67.33;98237.25;5006270;28;20022;-71
2022/09/25 01:03:06;;;;;;;22.40;13.93;;;;;;;11.42;67.26;98228.69;5008762;28;19917;-72
2022/09/25 01:05:35;;;;;;;22.35;13.43;;;;;;;11.40;67.27;98230.94;5006886;28;20062;-72
2022/09/25 01:08:03;;;;;;;22.88;13.45;;;;;;;11.40;67.14;98230.94;5002126;28;20029;-71
2022/09/25 01:10:29;;;;;;;23.00;13.73;;;;;;;11.40;66.89;98233.69;5001008;28;20361;-71
2022/09/25 01:12:56;;;;;;;19.25;12.40;;;;;;;11.40;67.34;98225.44;5004883;28;20501;-71
2022/09/25 01:15:41;;;;;;;20.77;12.02;;;;;;;11.38;67.60;98223.03;5001012;28;20023;-70
2022/09/25 01:18:06;;;;;;;18.58;11.75;;;;;;;11.42;67.70;98220.47;4998493;28;20053;-71
2022/09/25 01:20:49;;;;;;;19.88;12.25;;;;;;;11.41;67.66;98227.06;5009135;28;20069;-71
2022/09/25 01:23:15;;;;;;;17.88;11.50;;;;;;;11.42;67.75;98229.50;5008758;28;20163;-71
2022/09/25 01:25:59;;;;;;;18.40;12.15;;;;;;;11.41;67.27;98225.13;5007580;28;20144;-71
2022/09/25 01:28:28;;;;;;;20.15;12.60;;;;;;;11.43;67.57;98227.59;5007920;28;20377;-71
2022/09/25 01:31:00;;;;;;;23.35;13.65;;;;;;;11.44;67.13;98218.22;5007584;28;20371;-71
2022/09/25 01:33:54;;;;;;;19.48;12.35;;;;;;;11.42;67.38;98218.50;5009559;28;20033;-71
2022/09/25 01:36:33;;;;;;;20.73;13.45;;;;;;;11.46;67.76;98221.47;5007282;28;20021;-71
2022/09/25 01:39:09;;;;;;;19.13;12.33;;;;;;;11.47;66.93;98220.34;5008142;28;20037;-71
2022/09/25 01:41:40;;;;;;;17.92;12.07;;;;;;;11.47;67.48;98226.66;5007041;28;20022;-70
2022/09/25 01:44:12;;;;;;;19.50;12.43;;;;;;;11.50;67.16;98224.41;5008249;28;20017;-71
2022/09/25 01:46:45;;;;;;;31.58;14.80;;;;;;;11.47;66.94;98226.66;5011719;28;20164;-71
2022/09/25 01:49:34;;;;;;;24.35;14.30;;;;;;;11.46;67.25;98219.53;5003890;28;20045;-71
2022/09/25 01:52:05;;;;;;;28.10;15.65;;;;;;;11.48;67.40;98221.97;5002638;28;20037;-71
2022/09/25 01:54:39;;;;;;;26.17;16.00;;;;;;;11.47;67.30;98232.13;4999454;28;20427;-72
2022/09/25 01:57:13;;;;;;;26.88;15.68;;;;;;;11.47;67.48;98231.34;5003104;28;20033;-72
2022/09/25 01:59:46;;;;;;;25.63;15.65;;;;;;;11.46;67.50;98224.22;5004922;28;20038;-72
2022/09/25 02:02:18;;;;;;;26.45;16.42;;;;;;;11.45;67.70;98223.41;5005340;28;20092;-71
2022/09/25 02:05:01;;;;;;;25.65;15.40;;;;;;;11.44;67.59;98220.97;5008961;28;20393;-72
2022/09/25 02:07:34;;;;;;;26.15;15.75;;;;;;;11.43;67.71;98230.31;5004829;28;20022;-72
2022/09/25 02:10:13;;;;;;;29.35;16.65;;;;;;;11.41;67.68;98227.06;5005012;28;20053;-72
2022/09/25 02:12:46;;;;;;;29.00;16.97;;;;;;;11.41;67.58;98232.56;5001977;28;20470;-72
2022/09/25 02:15:36;;;;;;;28.83;16.55;;;;;;;11.39;67.55;98226.56;5003479;28;20041;-72
2022/09/25 02:21:31;;;;;;;24.73;15.07;;;;;;;11.42;67.74;98217.72;5001394;28;20579;-72
2022/09/25 02:24:08;;;;;;;24.80;15.02;;;;;;;11.45;67.57;98225.34;5016881;28;20490;-72
2022/09/25 02:26:34;;;;;;;22.45;14.23;;;;;;;11.44;67.12;98220.97;5010186;28;20497;-72
2022/09/25 02:29:01;;;;;;;22.17;14.55;;;;;;;11.40;66.87;98218.03;5013494;28;20025;-72
2022/09/25 02:31:35;;;;;;;21.25;13.45;;;;;;;11.40;67.44;98222.69;5012467;28;20022;-72
2022/09/25 02:34:02;;;;;;;20.75;13.07;;;;;;;11.40;67.61;98228.19;5008548;28;20057;-72
2022/09/25 02:36:31;;;;;;;24.33;13.85;;;;;;;11.39;67.33;98232.88;5013632;28;20026;-72
2022/09/25 02:38:56;;;;;;;22.77;14.20;;;;;;;11.41;67.23;98227.06;5006564;28;20091;-72
2022/09/25 02:41:47;;;;;;;22.48;13.85;;;;;;;11.39;67.11;98216.41;5012249;28;20709;-71
2022/09/25 02:44:21;;;;;;;21.67;13.95;;;;;;;11.40;66.92;98212.53;5006675;28;20061;-71
2022/09/25 02:46:52;;;;;;;23.20;14.45;;;;;;;11.42;67.42;98212.22;5021754;28;20057;-72
2022/09/25 02:49:34;;;;;;;19.65;13.93;;;;;;;11.40;67.60;98212.53;5030331;28;20382;-71
2022/09/25 02:52:21;;;;;;;24.73;14.82;;;;;;;11.38;67.53;98212.03;5029526;28;20479;-72
2022/09/25 02:55:10;;;;;;;24.95;14.95;;;;;;;11.36;67.49;98216.19;5029769;28;20032;-72
2022/09/25 02:57:51;;;;;;;24.85;15.68;;;;;;;11.35;67.39;98209.91;5020581;28;20486;-72
2022/09/25 03:00:21;;;;;;;20.92;14.80;;;;;;;11.35;67.95;98217.31;5010632;28;20022;-71
2022/09/25 03:02:49;;;;;;;24.25;15.38;;;;;;;11.34;67.20;98210.19;5010557;28;20030;-72
2022/09/25 03:05:15;;;;;;;24.55;16.10;;;;;;;11.34;67.27;98204.72;5010633;28;20033;-72
2022/09/25 03:10:26;;;;;;;25.15;16.27;;;;;;;11.34;67.52;98200.03;5010960;28;20184;-72
2022/09/25 03:12:52;;;;;;;22.73;15.88;;;;;;;11.35;67.65;98206.34;5011067;28;20045;-72
2022/09/25 03:15:18;;;;;;;25.42;16.83;;;;;;;11.33;67.62;98203.91;5010743;28;20037;-72
2022/09/25 03:17:47;;;;;;;27.73;16.80;;;;;;;11.30;67.63;98194.34;5017561;28;20048;-72
2022/09/25 03:20:12;;;;;;;25.30;16.58;;;;;;;11.30;67.90;98197.09;5016213;28;20025;-72
2022/09/25 03:22:38;;;;;;;26.15;16.67;;;;;;;11.30;67.57;98202.56;5010615;28;20387;-72
2022/09/25 03:25:04;;;;;;;25.63;16.33;;;;;;;11.29;67.76;98206.44;5017035;28;20029;-72
2022/09/25 03:27:29;;;;;;;25.65;17.02;;;;;;;11.29;67.96;98200.94;5020197;28;20106;-72
2022/09/25 03:29:55;;;;;;;25.67;16.90;;;;;;;11.29;68.29;98209.19;5009917;28;20022;-72
2022/09/25 03:32:21;;;;;;;28.30;17.73;;;;;;;11.30;68.20;98201.78;5009975;28;20034;-72
2022/09/25 03:34:46;;;;;;;29.08;17.52;;;;;;;11.29;67.95;98206.44;5008291;28;20429;-72
2022/09/25 03:37:11;;;;;;;26.17;16.90;;;;;;;11.29;67.62;98198.19;5020872;28;20156;-72
2022/09/25 03:39:37;;;;;;;28.08;17.30;;;;;;;11.29;67.83;98203.69;5017214;28;20109;-72
2022/09/25 03:42:03;;;;;;;26.80;17.08;;;;;;;11.28;67.96;98206.75;5009854;28;20038;-71
2022/09/25 03:44:29;;;;;;;26.02;17.52;;;;;;;11.27;67.91;98203.19;5009901;28;20041;-71
2022/09/25 03:46:54;;;;;;;26.15;18.02;;;;;;;11.27;67.97;98205.94;5020669;28;20030;-72
2022/09/25 03:49:19;;;;;;;27.50;17.13;;;;;;;11.28;68.60;98206.75;5019850;28;20120;-72
2022/09/25 03:51:45;;;;;;;26.08;17.55;;;;;;;11.26;68.26;98214.50;5009639;28;20034;-72
2022/09/25 03:54:10;;;;;;;29.48;17.67;;;;;;;11.25;67.71;98207.38;5009866;28;20112;-71
2022/09/25 03:56:35;;;;;;;27.17;17.73;;;;;;;11.24;67.92;98208.50;5009615;28;20033;-72
2022/09/25 03:59:01;;;;;;;30.27;18.60;;;;;;;11.26;68.14;98209.00;5016237;28;20042;-71
2022/09/25 04:01:27;;;;;;;30.65;18.33;;;;;;;11.24;68.58;98208.50;5009262;28;20398;-71
2022/09/25 04:03:53;;;;;;;29.63;18.35;;;;;;;11.23;68.33;98202.16;5009377;28;20491;-72
2022/09/25 04:06:22;;;;;;;28.52;17.75;;;;;;;11.22;68.33;98199.75;5009822;28;20255;-72
2022/09/25 04:08:48;;;;;;;28.75;18.17;;;;;;;11.21;68.18;98198.13;5008453;28;20032;-72
2022/09/25 04:11:17;;;;;;;29.80;18.55;;;;;;;11.19;69.01;98206.69;5011696;28;20042;-72
2022/09/25 04:13:43;;;;;;;29.58;18.17;;;;;;;11.21;68.99;98200.88;5010573;28;20025;-72
2022/09/25 04:16:10;;;;;;;29.85;18.80;;;;;;;11.20;68.13;98202.81;5010802;28;20044;-72
2022/09/25 04:18:36;;;;;;;29.67;18.70;;;;;;;11.20;68.41;98200.06;5016939;28;20033;-71
2022/09/25 04:21:04;;;;;;;31.25;18.45;;;;;;;11.22;68.50;98207.97;5028436;28;20124;-72
2022/09/25 04:23:31;;;;;;;28.75;18.17;;;;;;;11.23;68.79;98207.66;5021778;28;20116;-72
2022/09/25 04:25:57;;;;;;;28.10;18.75;;;;;;;11.23;68.47;98207.66;5011855;28;20062;-72
2022/09/25 04:28:22;;;;;;;32.28;19.42;;;;;;;11.24;68.32;98212.03;5013533;28;20530;-72
2022/09/25 04:30:49;;;;;;;36.50;20.05;;;;;;;11.26;68.93;98214.50;5020503;28;20029;-72
2022/09/25 04:35:59;;;;;;;27.83;17.27;;;;;;;11.26;68.99;98218.03;5019246;28;20057;-72
2022/09/25 04:38:25;;;;;;;27.10;16.30;;;;;;;11.26;68.19;98209.78;5012597;28;20033;-72
2022/09/25 04:40:51;;;;;;;24.35;16.13;;;;;;;11.27;68.35;98214.16;5013304;28;20030;-72
2022/09/25 04:43:16;;;;;;;25.80;16.10;;;;;;;11.28;68.62;98217.75;5012310;28;20105;-72
2022/09/25 04:45:41;;;;;;;25.80;16.20;;;;;;;11.27;68.41;98218.84;5023719;28;20144;-70
2022/09/25 04:48:07;;;;;;;27.20;16.70;;;;;;;11.26;69.01;98218.03;5018213;28;20026;-72
2022/09/25 04:50:33;;;;;;;24.58;15.48;;;;;;;11.26;68.42;98214.50;5018286;28;20543;-72
2022/09/25 04:52:59;;;;;;;22.67;14.65;;;;;;;11.25;68.77;98210.91;5030934;28;20492;-72
2022/09/25 04:55:26;;;;;;;25.38;15.40;;;;;;;11.29;68.30;98211.13;5013150;28;20033;-72
2022/09/25 04:57:55;;;;;;;25.77;16.10;;;;;;;11.30;69.02;98210.00;5012956;28;20033;-71
2022/09/25 05:00:21;;;;;;;23.15;15.93;;;;;;;11.31;68.37;98206.16;5012639;28;20494;-71
2022/09/25 05:02:47;;;;;;;24.52;15.50;;;;;;;11.30;68.60;98210.81;5012722;28;20022;-72
2022/09/25 05:05:14;;;;;;;26.35;16.20;;;;;;;11.31;68.38;98211.63;5012368;28;20036;-72
2022/09/25 05:07:39;;;;;;;24.70;16.35;;;;;;;11.33;68.78;98217.63;5030509;28;20224;-72
2022/09/25 05:10:07;;;;;;;23.88;15.63;;;;;;;11.34;68.49;98207.44;5022551;28;20146;-72
2022/09/25 05:12:33;;;;;;;24.20;16.08;;;;;;;11.35;68.81;98209.91;5022037;28;20052;-72
2022/09/25 05:14:58;;;;;;;25.00;15.15;;;;;;;11.35;68.57;98198.94;5012046;28;20414;-72
2022/09/25 05:17:24;;;;;;;25.27;16.08;;;;;;;11.38;68.60;98200.22;5013568;28;20399;-72
2022/09/25 05:19:49;;;;;;;29.75;19.08;;;;;;;11.39;68.69;98202.69;5019933;28;20385;-72
2022/09/25 05:22:15;;;;;;;29.77;19.73;;;;;;;11.39;68.71;98202.69;4997779;28;20028;-72
2022/09/25 05:24:40;;;;;;;32.50;19.98;;;;;;;11.40;68.94;98203.47;5027197;28;20539;-71
2022/09/25 05:27:06;;;;;;;30.42;19.67;;;;;;;11.43;68.61;98202.88;5012943;28;20026;-72
2022/09/25 05:29:31;;;;;;;30.52;21.48;;;;;;;11.42;68.98;98201.25;5012407;28;20034;-71
2022/09/25 05:31:57;;;;;;;30.85;19.70;;;;;;;11.41;69.03;98192.19;5010815;28;20398;-72
2022/09/25 05:34:22;;;;;;;30.92;19.92;;;;;;;11.40;69.21;98198.81;5010772;28;20149;-72
2022/09/25 05:36:47;;;;;;;30.50;20.23;;;;;;;11.41;68.55;98189.44;5010971;28;20084;-72
2022/09/25 05:39:13;;;;;;;32.30;20.88;;;;;;;11.42;69.03;98195.75;5014073;28;20079;-72
2022/09/25 05:41:38;;;;;;;33.13;19.50;;;;;;;11.42;68.58;98193.00;5021476;28;20389;-71
2022/09/25 05:44:08;;;;;;;28.45;18.45;;;;;;;11.43;68.69;98189.13;5012380;28;20030;-72
2022/09/25 05:46:37;;;;;;;32.22;19.10;;;;;;;11.44;68.98;98188.81;5008009;28;20088;-72
2022/09/25 05:49:03;;;;;;;27.35;17.63;;;;;;;11.44;69.10;98183.31;5013320;28;20138;-72
2022/09/25 05:51:28;;;;;;;26.65;17.48;;;;;;;11.47;69.21;98190.16;5010816;28;20506;-72
2022/09/25 05:53:54;;;;;;;26.70;17.15;;;;;;;11.51;69.39;98191.16;5011997;28;20057;-72
2022/09/25 05:56:21;;;;;;;23.63;15.82;;;;;;;11.52;69.04;98195.53;5011837;28;20795;-72
2022/09/25 05:58:48;;;;;;;22.75;14.32;;;;;;;11.54;69.04;98193.28;5011887;28;20038;-72
2022/09/25 06:01:13;;;;;;;24.08;14.40;;;;;;;11.53;69.56;98197.16;5004745;28;20166;-72
2022/09/25 06:03:39;;;;;;;22.05;14.30;;;;;;;11.55;69.60;98192.16;5016802;28;20046;-72
2022/09/25 06:06:05;;;;;;;21.00;14.50;;;;;;;11.58;69.34;98188.81;5010912;28;20057;-71
2022/09/25 06:08:31;;;;;;;23.45;14.98;;;;;;;11.61;69.74;98190.09;5026457;28;20038;-72
2022/09/25 06:10:57;;;;;;;21.65;13.93;;;;;;;11.62;70.05;98187.03;5014416;28;20042;-72
2022/09/25 06:13:26;;;;;;;23.83;16.95;;;;;;;11.64;69.47;98189.50;5011859;28;20033;-72
2022/09/25 06:15:52;;;;;;;26.10;18.23;;;;;;;11.67;70.22;98188.03;5011632;28;20089;-72
2022/09/25 06:18:22;;;;;;;27.60;18.17;;;;;;;11.68;70.08;98197.91;5008868;28;20069;-72
2022/09/25 06:20:48;;;;;;;27.25;18.63;;;;;;;11.66;70.21;98195.50;5019954;28;20478;-72
2022/09/25 06:23:14;;;;;;;25.92;16.50;;;;;;;11.65;70.04;98193.03;5014898;28;20052;-72
2022/09/25 06:25:40;;;;;;;23.45;15.43;;;;;;;11.64;69.89;98194.97;5011272;28;20430;-72
2022/09/25 06:28:06;;;;;;;22.88;15.77;;;;;;;11.65;70.06;98198.53;5011171;28;20030;-72
2022/09/25 06:30:34;;;;;;;22.42;15.13;;;;;;;11.65;70.62;98187.53;5029742;28;20032;-72
2022/09/25 06:33:08;;;;;;;23.25;14.88;;;;;;;11.66;70.19;98194.66;5020426;28;20686;-72
2022/09/25 06:35:34;;;;;;;22.60;14.77;;;;;;;11.66;70.20;98187.25;5011498;28;20393;-72
2022/09/25 06:38:01;;;;;;;20.42;14.02;;;;;;;11.65;70.76;98190.28;5011930;28;20030;-72
2022/09/25 06:40:30;;;;;;;20.75;15.57;;;;;;;11.67;70.47;98185.28;5023742;28;20034;-72
2022/09/25 06:43:00;;;;;;;21.95;15.65;;;;;;;11.69;70.81;98186.63;5022615;28;20080;-72
2022/09/25 06:45:27;;;;;;;22.95;16.23;;;;;;;11.72;70.40;98187.94;5010896;28;20026;-72
2022/09/25 06:47:56;;;;;;;22.50;15.88;;;;;;;11.72;70.62;98188.75;5013462;28;20026;-72
2022/09/25 06:50:30;;;;;;;23.23;16.15;;;;;;;11.76;70.90;98188.94;5021647;28;20036;-72
2022/09/25 06:52:58;;;;;;;29.45;20.50;;;;;;;11.76;70.94;98187.00;5023451;28;20069;-72
2022/09/25 06:55:24;;;;;;;36.25;22.58;;;;;;;11.78;71.14;98183.94;5013682;28;20112;-72
2022/09/25 06:57:49;;;;;;;47.83;27.17;;;;;;;11.82;70.72;98192.41;5011660;28;20120;-72
2022/09/25 07:00:14;;;;;;;40.20;24.08;;;;;;;11.84;71.15;98187.38;5010677;28;20149;-72
2022/09/25 07:05:24;;;;;;;27.00;17.98;;;;;;;11.93;71.46;98190.22;5016299;28;20052;-72
2022/09/25 07:07:49;;;;;;;33.88;20.60;;;;;;;11.96;70.87;98195.09;5024683;28;20025;-72
2022/09/25 07:10:15;;;;;;;37.20;22.23;;;;;;;11.98;71.21;98199.13;5009346;28;20074;-72
2022/09/25 07:12:41;;;;;;;32.92;20.13;;;;;;;12.00;71.54;98196.13;5009804;28;20442;-72
2022/09/25 07:15:07;;;;;;;27.40;17.60;;;;;;;12.01;71.44;98204.03;5008761;28;20455;-72
2022/09/25 07:17:33;;;;;;;22.00;16.42;;;;;;;12.03;71.52;98201.78;5022581;28;20120;-71
2022/09/25 07:19:59;;;;;;;22.45;15.30;;;;;;;12.11;71.67;98200.22;5013954;28;20440;-72
2022/09/25 07:22:25;;;;;;;19.95;14.40;;;;;;;12.18;71.55;98199.78;5008799;28;20076;-72
2022/09/25 07:24:50;;;;;;;20.88;15.48;;;;;;;12.25;71.27;98199.34;5013743;28;20035;-72
2022/09/25 07:27:15;;;;;;;19.85;14.05;;;;;;;12.32;71.60;98195.00;5024161;28;20116;-72
2022/09/25 07:29:41;;;;;;;22.65;15.52;;;;;;;12.39;72.08;98196.50;5015026;28;20038;-72
2022/09/25 07:32:06;;;;;;;22.35;15.80;;;;;;;12.43;72.16;98194.75;5009641;28;20390;-71
2022/09/25 07:34:34;;;;;;;23.95;15.65;;;;;;;12.51;71.85;98203.06;5014990;28;20046;-71
2022/09/25 07:37:00;;;;;;;23.67;16.42;;;;;;;12.60;71.69;98202.28;5019282;28;20117;-71
2022/09/25 07:39:26;;;;;;;24.02;16.05;;;;;;;12.66;72.07;98198.28;5013559;28;20117;-71
2022/09/25 07:41:53;;;;;;;22.38;16.35;;;;;;;12.73;72.25;98195.06;5008930;28;20397;-71
2022/09/25 07:44:19;;;;;;;22.02;14.93;;;;;;;12.83;72.25;98196.75;5012239;28;20152;-71
2022/09/25 07:46:44;;;;;;;21.52;15.30;;;;;;;12.87;72.39;98190.28;5016707;28;20100;-71
2022/09/25 07:49:10;;;;;;;20.27;14.13;;;;;;;12.91;72.37;98193.19;5028769;28;20064;-71
2022/09/25 07:51:35;;;;;;;21.77;14.20;;;;;;;12.96;72.38;98187.53;5024558;28;20022;-70
2022/09/25 07:54:01;;;;;;;20.05;14.45;;;;;;;13.02;72.41;98182.72;5010432;28;20060;-71
2022/09/25 07:56:26;;;;;;;18.25;12.98;;;;;;;13.08;72.42;98181.41;5016770;28;20026;-71
2022/09/25 07:58:52;;;;;;;19.23;13.63;;;;;;;13.15;72.55;98179.00;5033183;28;20465;-70
2022/09/25 08:01:18;;;;;;;20.83;14.50;;;;;;;13.22;72.55;98182.13;5033144;28;20026;-71
2022/09/25 08:03:43;;;;;;;20.23;14.10;;;;;;;13.28;72.42;98181.97;5033278;28;20032;-71
2022/09/25 08:06:12;;;;;;;20.33;13.85;;;;;;;13.31;72.62;98190.38;5018072;28;20113;-70
2022/09/25 08:08:41;;;;;;;18.20;13.77;;;;;;;13.35;72.62;98185.06;5013700;28;20569;-71
2022/09/25 08:11:12;;;;;;;18.27;13.20;;;;;;;13.35;72.65;98190.56;5032819;28;20054;-70
2022/09/25 08:13:39;;;;;;;17.33;12.80;;;;;;;13.36;72.61;98186.69;5032751;28;20029;-70
2022/09/25 08:16:07;;;;;;;19.48;13.38;;;;;;;13.36;72.95;98181.19;5032393;28;20738;-70
2022/09/25 08:18:33;;;;;;;17.45;13.18;;;;;;;13.38;72.43;98176.97;5032925;28;20033;-71
2022/09/25 08:21:02;;;;;;;20.95;13.18;;;;;;;13.42;72.59;98173.59;5033169;28;20029;-70
2022/09/25 08:23:28;;;;;;;20.92;13.02;;;;;;;13.49;72.57;98174.72;5032731;28;20033;-71
2022/09/25 08:25:54;;;;;;;16.70;12.50;;;;;;;13.54;72.89;98173.78;5032342;28;20156;-71
2022/09/25 08:28:19;;;;;;;16.65;12.43;;;;;;;13.58;72.80;98176.69;5032180;28;20559;-71
2022/09/25 08:30:46;;;;;;;16.55;13.05;;;;;;;13.60;73.12;98172.50;5032902;28;20036;-71
2022/09/25 08:33:12;;;;;;;17.55;12.90;;;;;;;13.63;72.66;98168.25;5021459;28;20030;-71
2022/09/25 08:35:39;;;;;;;15.65;12.63;;;;;;;13.64;72.73;98167.97;5012779;28;20144;-71
2022/09/25 08:38:06;;;;;;;16.85;11.50;;;;;;;13.68;72.96;98168.91;5016964;28;20022;-71
2022/09/25 08:40:33;;;;;;;16.27;12.07;;;;;;;13.72;72.56;98171.00;5012100;28;20022;-71
2022/09/25 08:42:59;;;;;;;17.75;12.18;;;;;;;13.75;72.75;98170.38;5012343;28;20033;-71
2022/09/25 08:51:19;;;;;;;18.35;11.88;;;;;;;13.88;72.69;98174.91;5016135;28;20568;-71
2022/09/25 08:53:44;;;;;;;18.45;13.70;;;;;;;13.97;72.61;98170.22;5012174;28;20048;-72
2022/09/25 08:56:16;;;;;;;20.98;14.48;;;;;;;14.08;72.71;98167.91;5026851;28;20470;-74
2022/09/25 08:58:49;;;;;;;18.52;14.35;;;;;;;14.19;72.47;98164.81;5012814;28;20459;-74
2022/09/25 09:01:20;;;;;;;23.00;15.23;;;;;;;14.26;72.57;98157.66;5016176;28;20057;-73
2022/09/25 09:04:31;;;;;;;22.02;14.45;;;;;;;14.33;72.24;98162.66;5017178;28;20065;-72
2022/09/25 09:07:05;;;;;;;19.50;12.32;;;;;;;14.40;72.41;98157.44;4973248;28;20031;-73
2022/09/25 09:09:39;;;;;;;20.55;13.90;;;;;;;14.44;72.24;98160.38;5018870;28;20135;-74
2022/09/25 09:12:34;;;;;;;21.63;15.05;;;;;;;14.54;72.52;98151.72;5011011;28;20551;-72
2022/09/25 09:15:28;;;;;;;19.13;13.30;;;;;;;14.60;72.09;98144.09;5007028;28;20621;-74
2022/09/25 09:17:54;;;;;;;18.65;13.07;;;;;;;14.76;72.57;98152.66;5031158;28;20096;-73
2022/09/25 09:20:33;;;;;;;20.20;13.23;;;;;;;14.89;72.39;98151.59;5024583;28;20033;-72
2022/09/25 09:22:59;;;;;;;18.38;13.43;;;;;;;15.01;72.17;98152.84;5019327;28;20057;-72
2022/09/25 09:25:37;;;;;;;14.85;11.52;;;;;;;15.15;72.13;98158.13;5031616;28;20538;-72
2022/09/25 09:28:15;;;;;;;17.20;11.93;;;;;;;15.20;72.21;98155.19;5021503;28;20036;-73
2022/09/25 09:31:07;;;;;;;15.20;11.15;;;;;;;15.31;72.12;98155.59;5021860;28;20033;-73
2022/09/25 09:34:17;;;;;;;13.27;10.63;;;;;;;15.33;71.26;98158.81;5027504;28;20080;-73
2022/09/25 09:36:50;;;;;;;13.32;10.40;;;;;;;15.39;71.31;98151.16;4988163;28;20514;-72
2022/09/25 09:39:31;;;;;;;15.55;10.50;;;;;;;15.47;71.42;98145.56;5013961;28;20034;-72
2022/09/25 09:42:32;;;;;;;15.00;9.90;;;;;;;15.63;71.86;98137.47;5011015;28;20041;-72
2022/09/25 09:45:40;;;;;;;14.13;10.63;;;;;;;15.84;71.45;98133.91;5015817;28;20041;-72
2022/09/25 09:48:27;;;;;;;18.17;11.95;;;;;;;16.00;71.66;98136.03;4981097;28;20476;-72
2022/09/25 09:50:59;;;;;;;14.48;10.30;;;;;;;16.10;71.18;98127.31;5005330;28;20502;-72
2022/09/25 09:53:36;;;;;;;13.10;9.77;;;;;;;16.15;70.84;98120.75;5007730;28;20076;-72
2022/09/25 09:56:29;;;;;;;10.43;8.02;;;;;;;16.20;70.36;98121.38;5009275;28;20092;-74
2022/09/25 09:59:05;;;;;;;12.90;9.10;;;;;;;16.26;70.26;98124.72;5009553;28;20108;-74
2022/09/25 10:01:36;;;;;;;14.07;9.55;;;;;;;16.29;69.68;98121.25;5009533;28;20466;-74
2022/09/25 10:04:15;;;;;;;12.02;8.52;;;;;;;16.28;69.38;98124.38;5013958;28;20022;-74
2022/09/25 10:06:49;;;;;;;11.30;8.35;;;;;;;16.27;69.16;98120.00;5009333;28;20699;-73
2022/09/25 10:09:16;;;;;;;13.18;8.48;;;;;;;16.28;68.99;98114.09;5008920;28;20060;-74
2022/09/25 10:11:42;;;;;;;12.60;9.18;;;;;;;16.25;68.44;98123.09;5008543;28;20124;-73
2022/09/25 10:14:19;;;;;;;11.57;8.43;;;;;;;16.26;68.98;98116.41;5008854;28;20033;-74
2022/09/25 10:16:49;;;;;;;12.63;8.57;;;;;;;16.32;68.41;98115.03;5008621;28;20033;-75
2022/09/25 10:19:18;;;;;;;;;;;;;;;16.36;68.62;98127.03;5007630;28;20036;-73
2022/09/25 10:22:06;;;;;;;13.77;9.00;;;;;;;16.44;68.46;98119.00;5011243;28;19929;-73
2022/09/25 10:25:08;;;;;;;12.98;9.60;;;;;;;16.57;68.37;98125.34;5006390;28;20026;-73
2022/09/25 10:27:44;;;;;;;15.07;9.52;;;;;;;16.63;67.92;98118.44;4998570;28;20113;-73
2022/09/25 10:30:10;;;;;;;15.13;9.15;;;;;;;16.69;68.05;98116.22;5002181;28;20087;-73
2022/09/25 10:33:01;;;;;;;13.15;8.60;;;;;;;16.75;67.81;98110.13;4998292;28;20034;-74
2022/09/25 10:35:28;;;;;;;11.55;8.32;;;;;;;16.89;67.84;98109.78;5004294;28;20084;-74
2022/09/25 10:37:59;;;;;;;15.73;9.32;;;;;;;16.99;67.67;98107.72;5008400;28;20082;-74
2022/09/25 10:40:37;;;;;;;12.77;8.23;;;;;;;17.04;67.37;98107.47;5005374;28;20129;-74
2022/09/25 10:43:11;;;;;;;13.93;8.65;;;;;;;17.09;67.46;98105.31;5008048;28;20478;-73
2022/09/25 10:45:39;;;;;;;9.30;7.28;;;;;;;17.15;67.16;98100.31;4999597;28;20034;-74
2022/09/25 10:51:19;;;;;;;9.82;7.72;;;;;;;17.24;67.07;98101.00;5027578;28;20052;-73
2022/09/25 10:53:47;;;;;;;15.57;8.43;;;;;;;17.35;67.04;98097.72;5007242;28;20029;-72
2022/09/25 10:56:34;;;;;;;11.02;7.18;;;;;;;17.40;66.96;98097.47;5008884;28;20120;-73
2022/09/25 10:59:01;;;;;;;10.50;7.50;;;;;;;17.47;66.82;98094.13;5004139;28;20033;-73
2022/09/25 11:01:35;;;;;;;9.02;7.28;;;;;;;17.53;66.49;98087.16;5002139;28;20045;-74
2022/09/25 11:04:05;;;;;;;10.45;7.28;;;;;;;17.56;66.32;98092.00;5008644;28;20145;-73
2022/09/25 11:06:33;;;;;;;10.60;7.43;;;;;;;17.62;66.29;98101.69;5010492;28;20034;-70
2022/09/25 11:09:13;;;;;;;9.13;5.80;;;;;;;17.71;66.29;98093.25;5005388;28;20478;-70
2022/09/25 11:11:40;;;;;;;7.80;6.05;;;;;;;17.81;66.05;98092.72;5003497;28;20053;-72
2022/09/25 11:14:18;;;;;;;10.73;6.47;;;;;;;17.88;65.70;98100.44;5004054;28;20026;-71
2022/09/25 11:16:56;;;;;;;8.70;6.00;;;;;;;17.92;65.34;98103.31;5003717;28;20445;-72
2022/09/25 11:19:29;;;;;;;8.50;6.13;;;;;;;17.95;64.98;98092.28;5010809;28;20022;-71
2022/09/25 11:22:03;;;;;;;7.60;5.20;;;;;;;17.93;64.53;98088.28;5014588;28;20030;-72
2022/09/25 11:24:47;;;;;;;6.43;5.28;;;;;;;17.94;64.37;98090.69;5010820;28;20030;-70
2022/09/25 11:27:30;;;;;;;9.00;5.38;;;;;;;17.95;64.38;98085.94;5014585;28;20029;-71
2022/09/25 11:30:15;;;;;;;8.32;5.38;;;;;;;17.96;64.19;98082.00;5007151;28;20040;-70
2022/09/25 11:33:03;;;;;;;7.63;5.57;;;;;;;17.98;62.89;98071.38;5007736;28;20026;-70
2022/09/25 11:36:02;;;;;;;7.97;5.50;;;;;;;17.92;62.86;98067.25;5006596;28;20117;-70
2022/09/25 11:42:10;;;;;;;9.77;5.82;;;;;;;17.85;62.50;98056.75;5024465;28;20064;-72
2022/09/25 11:44:58;;;;;;;8.20;5.22;;;;;;;17.84;62.52;98055.94;5007466;28;20479;-70
2022/09/25 11:47:33;;;;;;;18.98;10.63;;;;;;;17.87;62.86;98048.91;5007312;28;20124;-71
2022/09/25 11:50:01;;;;;;;7.60;5.88;;;;;;;17.84;62.13;98053.16;5018385;28;20096;-71
2022/09/25 11:52:41;;;;;;;6.43;5.40;;;;;;;17.82;62.21;98049.94;5020714;28;20033;-71
2022/09/25 11:55:45;;;;;;;7.07;5.40;;;;;;;17.88;62.43;98038.59;5019552;28;20042;-72
2022/09/25 11:58:13;;;;;;;6.07;5.13;;;;;;;17.97;61.97;98050.34;5008626;28;20033;-71
2022/09/25 12:00:53;;;;;;;5.70;4.70;;;;;;;17.98;62.19;98040.84;5009537;28;20026;-74
2022/09/25 12:03:37;;;;;;;;;;;;;;;17.99;62.27;98034.16;5009630;28;20034;-73